Pagrindinis puslapis
METAR-TAF:

METAR-TAF

Oro uostai :

Rovaniemis, Suomija

platuma: 66-34N, ilguma: 025-50E, Aukštis: 197 m

Dabartinis oras

Ataskaita buvo paskelbta 14 minutes, ne 00:20 UTC
Vėjas 5 kt iš Šiaurės Vakarų, svyruoja nuo Vakarų ir Šiaurės
Temperatūra 10°C
Drėgmė 100%
Slėgis 996 hPa
Matomumas 10 km arba daugiau
Išsisklaidę debesys ne aukštis 600 ft

METAR: EFRO 020020Z AUTO 31005KT 280V350 9999 SCT006 10/10 Q0996

Laikas: 03:34 (00:34 UTC)

Prognozė

Ataskaita buvo paskelbta 1 valandą ir 6 minutes, ne 23:28 UTC
Prognozė galioja nuo 02 metu 00 UTC su 02 metu 24 UTC
Vėjas 7 kt iš Šiaurės Vakarų
Matomumas 10 km arba daugiau
Su prošvaistėmis ne aukštis 4000 ft
Laikinai
nuo 02 metu 00 UTC su 02 metu 07 UTC
Su prošvaistėmis ne aukštis 800 ft

TAF: EFRO 012328Z 0200/0224 31007KT 9999 BKN040 TEMPO 0200/0207 BKN008

Orai ataskaitas ir orų prognozės (METAR, TAF).

turimą stotys yra geltonos ir raudonos taškus žemėlapyje.

Perkelti pele per norėdami pamatyti stoties vardą.

Tada spustelėkite, norėdami matyti oro stebėjimo ir prognozės.

Norėdami pakeisti žemėlapį: spustelėkite ant žalios mygtukų su juodo kryžiaus žemyn,; žalią mygtuką su brūkšneliu, jei norite nutolinti; arba žalių rodyklių gretimoms žemėlapius.


METAR-TAF: